createdAt,value
2022-11-17T00:04:28.458Z,11.81
2022-11-17T00:44:28.561Z,11.82
2022-11-17T01:24:27.996Z,11.82
2022-11-17T01:44:28.499Z,11.82
2022-11-17T02:04:28.474Z,11.82
2022-11-17T02:24:28.453Z,11.82
2022-11-17T02:44:28.439Z,11.83
2022-11-17T03:04:28.433Z,11.83
2022-11-17T03:24:28.401Z,11.83
2022-11-17T03:44:28.399Z,11.83
2022-11-17T04:24:28.343Z,11.83
2022-11-17T04:44:27.560Z,11.83
2022-11-17T05:04:28.306Z,11.84
2022-11-17T05:24:28.167Z,11.84
2022-11-17T05:44:28.273Z,11.84
2022-11-17T06:04:28.390Z,11.84
2022-11-17T06:24:27.713Z,11.84
2022-11-17T06:44:27.694Z,11.84
2022-11-17T07:04:27.727Z,11.84
2022-11-17T07:24:28.210Z,11.84
2022-11-17T07:44:28.190Z,11.84
2022-11-17T08:04:27.397Z,11.84
2022-11-17T08:24:28.030Z,11.84
2022-11-17T08:44:27.995Z,11.84
2022-11-17T09:04:27.959Z,11.85
2022-11-17T09:24:28.079Z,11.85
2022-11-17T09:44:28.057Z,11.85
2022-11-17T10:04:28.046Z,11.85
2022-11-17T10:24:28.020Z,11.85
2022-11-17T10:44:28.016Z,11.85
2022-11-17T11:04:27.985Z,11.85
2022-11-17T11:24:26.832Z,11.85
2022-11-17T11:44:27.411Z,11.85
2022-11-17T12:24:27.892Z,11.85
2022-11-17T12:44:27.860Z,11.85
2022-11-17T13:04:27.317Z,11.85
2022-11-17T13:24:27.831Z,11.86
2022-11-17T13:44:27.800Z,11.86
2022-11-17T14:04:28.260Z,11.86
2022-11-17T14:24:27.756Z,11.86
2022-11-17T14:44:27.735Z,11.86
2022-11-17T15:04:49.260Z,11.86
2022-11-17T15:24:27.173Z,11.87
2022-11-17T15:44:27.679Z,11.87
2022-11-17T16:04:27.684Z,11.87
2022-11-17T16:24:27.630Z,11.87
2022-11-17T16:44:27.675Z,11.87
2022-11-17T17:04:27.591Z,11.88
2022-11-17T17:24:26.805Z,11.88
2022-11-17T18:04:27.549Z,11.88
2022-11-17T18:24:27.532Z,11.88
2022-11-17T18:44:27.506Z,11.88
2022-11-17T19:04:27.533Z,11.89
2022-11-17T19:24:26.734Z,11.89
2022-11-17T19:44:27.465Z,11.89
2022-11-17T20:04:27.352Z,11.89
2022-11-17T20:24:27.437Z,11.89
2022-11-17T20:44:27.436Z,11.89
2022-11-17T21:04:27.408Z,11.89
2022-11-17T21:24:27.385Z,11.89
2022-11-17T21:44:27.375Z,11.89
2022-11-17T22:04:27.355Z,11.9
2022-11-17T22:24:27.220Z,11.89
2022-11-17T22:44:27.347Z,11.9
2022-11-17T23:04:27.340Z,11.89
2022-11-17T23:24:27.314Z,11.9
2022-11-17T23:44:27.309Z,11.89
